createdAt,value
2022-10-30T00:02:33.191Z,82.99
2022-10-30T00:05:38.816Z,82.96
2022-10-30T00:08:44.398Z,83.17
2022-10-30T00:11:52.597Z,82.41
2022-10-30T00:14:58.182Z,82.30
2022-10-30T00:18:04.249Z,82.41
2022-10-30T00:21:12.519Z,82.91
2022-10-30T00:24:18.138Z,83.15
2022-10-30T00:27:26.502Z,82.90
2022-10-30T00:30:32.281Z,82.68
2022-10-30T00:33:38.042Z,82.99
2022-10-30T00:36:43.650Z,82.81
2022-10-30T00:39:49.476Z,82.88
2022-10-30T00:42:57.945Z,81.75
2022-10-30T00:46:11.721Z,81.75
2022-10-30T00:49:20.058Z,81.25
2022-10-30T00:52:33.094Z,82.49
2022-10-30T00:55:46.935Z,84.23
2022-10-30T00:59:03.375Z,84.41
2022-10-30T01:02:11.703Z,84.72
2022-10-30T01:05:25.777Z,85.15
2022-10-30T01:08:32.059Z,85.91
2022-10-30T01:11:37.905Z,85.82
2022-10-30T01:14:55.282Z,85.67
2022-10-30T01:18:26.287Z,85.62
2022-10-30T01:21:54.126Z,85.69
2022-10-30T01:25:24.181Z,85.40
2022-10-30T01:29:04.735Z,85.70
2022-10-30T01:32:37.724Z,84.03
2022-10-30T01:35:55.648Z,84.33
2022-10-30T01:39:10.604Z,84.33
2022-10-30T01:42:48.735Z,85.37
2022-10-30T01:46:30.016Z,84.81
2022-10-30T01:50:13.507Z,85.24
2022-10-30T01:53:40.464Z,84.81
2022-10-30T01:57:05.145Z,84.03
2022-10-30T02:00:15.620Z,83.87
2022-10-30T02:03:32.732Z,82.86
2022-10-30T02:06:43.069Z,82.75
2022-10-30T02:09:49.638Z,82.44
2022-10-30T02:12:55.669Z,82.44
2022-10-30T02:16:03.991Z,82.41
2022-10-30T02:19:09.594Z,81.57
2022-10-30T02:22:18.188Z,82.98
2022-10-30T02:25:24.050Z,84.31
2022-10-30T02:28:31.282Z,84.21
2022-10-30T02:31:36.932Z,83.71
2022-10-30T02:34:43.171Z,83.69
2022-10-30T02:37:53.618Z,84.29
2022-10-30T02:41:03.717Z,84.16
2022-10-30T02:44:09.887Z,84.01
2022-10-30T02:47:15.524Z,85.40
2022-10-30T02:50:21.161Z,85.04
2022-10-30T02:53:39.924Z,85.87
2022-10-30T02:56:50.597Z,86.63
2022-10-30T02:59:56.255Z,86.05
2022-10-30T03:03:08.487Z,85.53
2022-10-30T03:06:17.947Z,85.85
2022-10-30T03:09:26.139Z,86.33
2022-10-30T03:12:31.733Z,86.24
2022-10-30T03:15:37.416Z,85.10
2022-10-30T03:18:45.658Z,84.68
2022-10-30T03:21:51.382Z,85.12
2022-10-30T03:24:59.678Z,84.86
2022-10-30T03:28:06.217Z,83.99
2022-10-30T03:31:16.264Z,83.76
2022-10-30T03:34:22.245Z,83.94
2022-10-30T03:37:30.148Z,82.95
2022-10-30T03:40:38.439Z,83.24
2022-10-30T03:43:44.168Z,83.73
2022-10-30T03:46:49.928Z,84.87
2022-10-30T03:50:03.616Z,84.21
2022-10-30T03:53:09.334Z,84.32
2022-10-30T03:56:17.700Z,85.61
2022-10-30T03:59:31.699Z,85.47
2022-10-30T04:03:15.709Z,84.71
2022-10-30T04:06:21.880Z,85.61
2022-10-30T04:09:27.917Z,84.85
2022-10-30T04:12:36.235Z,84.63
2022-10-30T04:15:42.925Z,85.35
2022-10-30T04:18:48.699Z,85.43
2022-10-30T04:21:54.374Z,85.74
2022-10-30T04:25:00.231Z,86.95
2022-10-30T04:28:10.064Z,86.74
2022-10-30T04:31:16.468Z,86.50
2022-10-30T04:34:28.722Z,87.23
2022-10-30T04:37:40.944Z,86.81
2022-10-30T04:40:47.746Z,86.47
2022-10-30T04:43:56.911Z,85.62
2022-10-30T04:47:02.793Z,85.17
2022-10-30T04:50:15.638Z,84.76
2022-10-30T04:53:22.823Z,84.81
2022-10-30T04:56:35.244Z,85.47
2022-10-30T04:59:44.161Z,84.37
2022-10-30T05:02:49.762Z,83.35
2022-10-30T05:06:04.861Z,83.33
2022-10-30T05:09:10.501Z,83.77
2022-10-30T05:12:19.751Z,83.80
2022-10-30T05:15:35.217Z,84.26
2022-10-30T05:18:40.919Z,85.00
2022-10-30T05:21:46.549Z,84.80
2022-10-30T05:24:52.809Z,84.83
2022-10-30T05:28:02.264Z,85.38
2022-10-30T05:31:12.394Z,85.54
2022-10-30T05:34:38.325Z,86.21
2022-10-30T05:37:43.995Z,85.67
2022-10-30T05:40:51.476Z,85.59
2022-10-30T05:43:57.349Z,86.09
2022-10-30T05:47:07.288Z,86.35
2022-10-30T05:50:15.350Z,86.34
2022-10-30T05:53:36.015Z,86.22
2022-10-30T05:56:43.577Z,86.45
2022-10-30T05:59:49.293Z,87.17
2022-10-30T06:03:03.671Z,86.51
2022-10-30T06:06:11.075Z,86.61
2022-10-30T06:09:16.888Z,86.13
2022-10-30T06:12:42.787Z,86.23
2022-10-30T06:16:01.381Z,85.60
2022-10-30T06:19:26.144Z,86.23
2022-10-30T06:22:37.287Z,86.51
2022-10-30T06:25:52.093Z,86.87
2022-10-30T06:29:07.718Z,86.85
2022-10-30T06:32:13.346Z,86.92
2022-10-30T06:35:26.222Z,86.42
2022-10-30T06:38:33.210Z,86.27
2022-10-30T06:41:39.606Z,86.75
2022-10-30T06:45:00.121Z,86.53
2022-10-30T06:48:10.259Z,86.46
2022-10-30T06:51:24.426Z,85.65
2022-10-30T06:54:32.719Z,85.25
2022-10-30T06:57:38.651Z,84.29
2022-10-30T07:00:54.150Z,83.59
2022-10-30T07:04:15.074Z,82.98
2022-10-30T07:07:32.038Z,82.84
2022-10-30T07:10:38.824Z,82.90
2022-10-30T07:14:03.227Z,80.43
2022-10-30T07:17:39.869Z,79.95
2022-10-30T07:20:59.203Z,79.23
2022-10-30T07:24:18.341Z,78.56
2022-10-30T07:27:50.376Z,78.16
2022-10-30T07:31:24.183Z,75.94
2022-10-30T07:34:56.849Z,72.25
2022-10-30T07:38:09.135Z,68.99
2022-10-30T07:41:29.774Z,65.88
2022-10-30T07:45:25.760Z,62.56
2022-10-30T07:48:50.321Z,60.18
2022-10-30T07:52:17.365Z,60.43
2022-10-30T07:55:25.508Z,58.12
2022-10-30T07:58:33.760Z,57.31
2022-10-30T08:01:53.631Z,56.06
2022-10-30T08:05:13.872Z,53.81
2022-10-30T08:08:45.047Z,51.84
2022-10-30T08:12:03.609Z,49.34
2022-10-30T08:15:15.122Z,48.49
2022-10-30T08:18:21.692Z,46.68
2022-10-30T08:21:34.061Z,46.98
2022-10-30T08:24:46.942Z,46.04
2022-10-30T08:27:59.296Z,45.09
2022-10-30T08:31:15.154Z,44.96
2022-10-30T08:34:40.252Z,44.89
2022-10-30T08:37:46.389Z,44.58
2022-10-30T08:40:52.321Z,44.15
2022-10-30T08:43:58.760Z,44.24
2022-10-30T08:47:13.842Z,44.58
2022-10-30T08:50:19.690Z,46.03
2022-10-30T08:53:25.396Z,46.92
2022-10-30T08:56:32.992Z,46.28
2022-10-30T08:59:49.635Z,44.19
2022-10-30T09:03:17.844Z,44.19
2022-10-30T09:11:15.124Z,41.35
2022-10-30T09:14:21.393Z,40.56
2022-10-30T09:17:27.254Z,39.99
2022-10-30T09:20:35.785Z,40.98
2022-10-30T09:23:42.587Z,40.10
2022-10-30T09:27:19.993Z,39.33
2022-10-30T09:30:28.512Z,38.78
2022-10-30T09:33:43.100Z,39.05
2022-10-30T09:37:23.352Z,40.84
2022-10-30T09:40:57.012Z,42.65
2022-10-30T09:44:26.089Z,42.11
2022-10-30T09:47:50.665Z,42.05
2022-10-30T09:51:21.859Z,44.33
2022-10-30T09:54:53.646Z,43.86
2022-10-30T09:58:20.112Z,43.21
2022-10-30T10:01:36.821Z,42.26
2022-10-30T10:04:53.061Z,39.25
2022-10-30T10:08:35.099Z,38.93
2022-10-30T10:12:16.516Z,40.99
2022-10-30T10:15:41.583Z,40.92
2022-10-30T10:18:55.080Z,41.75
2022-10-30T10:22:03.443Z,41.08
2022-10-30T10:25:21.060Z,39.21
2022-10-30T10:29:08.295Z,37.56
2022-10-30T10:33:04.252Z,38.06
2022-10-30T10:36:31.092Z,37.98
2022-10-30T10:40:19.400Z,37.58
2022-10-30T10:44:03.346Z,37.84
2022-10-30T10:47:49.435Z,36.04
2022-10-30T10:51:08.966Z,37.00
2022-10-30T10:54:22.720Z,37.11
2022-10-30T10:57:36.462Z,37.76
2022-10-30T11:00:46.761Z,38.10
2022-10-30T11:04:06.026Z,36.75
2022-10-30T11:07:25.274Z,35.69
2022-10-30T11:10:31.120Z,36.03
2022-10-30T11:13:41.004Z,35.93
2022-10-30T11:17:16.269Z,34.62
2022-10-30T11:20:31.988Z,34.02
2022-10-30T11:23:51.165Z,33.68
2022-10-30T11:27:19.575Z,33.85
2022-10-30T11:30:34.191Z,33.70
2022-10-30T11:33:44.128Z,35.30
2022-10-30T11:36:52.433Z,35.33
2022-10-30T11:40:09.221Z,36.92
2022-10-30T11:43:31.062Z,37.41
2022-10-30T11:46:40.631Z,38.06
2022-10-30T11:49:56.885Z,38.54
2022-10-30T11:53:16.471Z,38.60
2022-10-30T11:56:27.471Z,39.95
2022-10-30T11:59:33.509Z,39.60
2022-10-30T12:02:48.942Z,39.46
2022-10-30T12:06:12.267Z,39.27
2022-10-30T12:09:25.416Z,40.14
2022-10-30T12:12:36.984Z,40.14
2022-10-30T12:15:45.349Z,40.15
2022-10-30T12:19:15.399Z,40.85
2022-10-30T12:22:35.054Z,43.94
2022-10-30T12:25:41.276Z,44.21
2022-10-30T12:29:01.577Z,43.44
2022-10-30T12:32:17.678Z,42.45
2022-10-30T12:35:42.234Z,44.63
2022-10-30T12:38:59.490Z,42.89
2022-10-30T12:42:16.267Z,43.08
2022-10-30T12:45:31.953Z,41.94
2022-10-30T12:48:53.325Z,43.80
2022-10-30T12:52:20.212Z,45.53
2022-10-30T12:55:43.159Z,43.57
2022-10-30T12:59:00.267Z,43.34
2022-10-30T13:02:31.365Z,44.95
2022-10-30T13:05:48.444Z,43.65
2022-10-30T13:09:24.417Z,44.98
2022-10-30T13:12:40.875Z,46.34
2022-10-30T13:15:53.679Z,46.30
2022-10-30T13:19:04.097Z,46.73
2022-10-30T13:22:22.030Z,48.13
2022-10-30T13:25:39.273Z,48.99
2022-10-30T13:29:02.130Z,50.29
2022-10-30T13:32:32.446Z,50.38
2022-10-30T13:35:51.281Z,50.76
2022-10-30T13:39:16.327Z,50.32
2022-10-30T13:42:43.602Z,49.97
2022-10-30T13:46:59.899Z,49.99
2022-10-30T13:50:38.577Z,51.21
2022-10-30T13:53:58.105Z,51.62
2022-10-30T13:57:17.845Z,51.89
2022-10-30T14:00:32.970Z,51.92
2022-10-30T14:04:01.125Z,52.58
2022-10-30T14:07:30.106Z,53.97
2022-10-30T14:10:49.101Z,54.58
2022-10-30T14:13:59.218Z,54.12
2022-10-30T14:17:16.783Z,54.59
2022-10-30T14:20:31.058Z,56.05
2022-10-30T14:23:40.067Z,56.31
2022-10-30T14:26:53.269Z,56.93
2022-10-30T14:29:59.898Z,57.16
2022-10-30T14:33:06.241Z,56.14
2022-10-30T14:36:25.858Z,56.34
2022-10-30T14:39:33.327Z,56.24
2022-10-30T14:42:55.040Z,55.96
2022-10-30T14:46:20.277Z,56.55
2022-10-30T14:49:49.466Z,57.29
2022-10-30T14:53:29.553Z,58.00
2022-10-30T14:56:54.290Z,57.94
2022-10-30T15:00:45.056Z,58.28
2022-10-30T15:04:10.687Z,58.22
2022-10-30T15:07:34.388Z,58.81
2022-10-30T15:11:11.737Z,59.21
2022-10-30T15:14:48.737Z,59.70
2022-10-30T15:18:20.313Z,59.90
2022-10-30T15:21:46.739Z,60.63
2022-10-30T15:24:55.091Z,60.60
2022-10-30T15:28:04.555Z,61.07
2022-10-30T15:31:25.107Z,61.65
2022-10-30T15:34:33.621Z,62.16
2022-10-30T15:37:39.491Z,62.54
2022-10-30T15:40:45.529Z,61.57
2022-10-30T15:43:54.525Z,62.35
2022-10-30T15:47:18.308Z,61.74
2022-10-30T15:50:32.617Z,62.47
2022-10-30T15:53:48.594Z,63.16
2022-10-30T15:57:42.811Z,63.59
2022-10-30T16:00:38.223Z,63.42
2022-10-30T16:03:47.391Z,63.99
2022-10-30T16:06:57.627Z,63.92
2022-10-30T16:10:17.322Z,64.35
2022-10-30T16:13:41.679Z,64.16
2022-10-30T16:16:51.275Z,64.58
2022-10-30T16:20:18.393Z,63.94
2022-10-30T16:23:25.521Z,63.77
2022-10-30T16:26:35.677Z,64.19
2022-10-30T16:29:41.850Z,64.16
2022-10-30T16:33:02.483Z,63.93
2022-10-30T16:36:19.764Z,63.81
2022-10-30T16:39:26.927Z,64.75
2022-10-30T16:42:35.126Z,65.11
2022-10-30T16:45:59.467Z,64.40
2022-10-30T16:49:35.393Z,64.52
2022-10-30T16:52:55.686Z,64.41
2022-10-30T16:56:03.529Z,63.97
2022-10-30T16:59:18.083Z,64.16
2022-10-30T17:02:26.885Z,63.91
2022-10-30T17:05:38.003Z,63.21
2022-10-30T17:08:47.423Z,63.20
2022-10-30T17:12:15.226Z,62.63
2022-10-30T17:15:25.087Z,62.61
2022-10-30T17:18:34.051Z,62.67
2022-10-30T17:21:45.368Z,62.70
2022-10-30T17:24:52.047Z,62.35
2022-10-30T17:28:00.316Z,61.89
2022-10-30T17:31:37.491Z,61.95
2022-10-30T17:34:43.293Z,61.27
2022-10-30T17:37:52.276Z,60.92
2022-10-30T17:40:58.136Z,60.72
2022-10-30T17:44:05.110Z,59.70
2022-10-30T17:47:19.883Z,59.70
2022-10-30T17:50:25.505Z,59.48
2022-10-30T17:53:35.725Z,59.95
2022-10-30T17:56:42.346Z,59.59
2022-10-30T17:59:50.408Z,59.78
2022-10-30T18:02:56.069Z,59.70
2022-10-30T18:06:05.652Z,59.67
2022-10-30T18:09:16.338Z,59.88
2022-10-30T18:12:21.987Z,59.92
2022-10-30T18:15:36.701Z,60.19
2022-10-30T18:18:42.317Z,60.23
2022-10-30T18:21:51.824Z,60.58
2022-10-30T18:25:05.183Z,60.74
2022-10-30T18:28:18.762Z,60.50
2022-10-30T18:31:27.390Z,60.30
2022-10-30T18:34:33.030Z,60.56
2022-10-30T18:37:38.634Z,60.51
2022-10-30T18:40:50.986Z,60.75
2022-10-30T18:43:56.666Z,60.96
2022-10-30T18:47:03.347Z,61.09
2022-10-30T18:50:28.417Z,61.42
2022-10-30T18:53:35.340Z,61.71
2022-10-30T18:56:44.160Z,61.92
2022-10-30T18:59:49.735Z,62.71
2022-10-30T19:02:55.930Z,62.83
2022-10-30T19:06:01.584Z,63.03
2022-10-30T19:09:26.380Z,63.30
2022-10-30T19:13:04.194Z,63.43
2022-10-30T19:16:15.880Z,64.01
2022-10-30T19:19:24.245Z,64.28
2022-10-30T19:22:30.355Z,64.15
2022-10-30T19:25:40.647Z,64.17
2022-10-30T19:28:49.461Z,64.38
2022-10-30T19:31:55.084Z,64.14
2022-10-30T19:35:05.377Z,64.73
2022-10-30T19:38:14.116Z,65.02
2022-10-30T19:41:20.056Z,65.34
2022-10-30T19:44:28.531Z,65.82
2022-10-30T19:47:36.825Z,66.92
2022-10-30T19:50:45.549Z,68.13
2022-10-30T19:53:52.796Z,68.30
2022-10-30T19:56:58.432Z,68.68
2022-10-30T20:00:14.953Z,68.31
2022-10-30T20:03:20.569Z,67.99
2022-10-30T20:06:27.271Z,68.55
2022-10-30T20:09:36.947Z,68.89
2022-10-30T20:12:42.629Z,69.66
2022-10-30T20:15:50.919Z,70.11
2022-10-30T20:18:56.639Z,70.18
2022-10-30T20:22:04.939Z,70.09
2022-10-30T20:25:12.122Z,69.98
2022-10-30T20:28:26.161Z,70.15
2022-10-30T20:31:34.458Z,69.48
2022-10-30T20:34:40.224Z,69.63
2022-10-30T20:37:59.047Z,69.68
2022-10-30T20:41:08.090Z,70.14
2022-10-30T20:44:15.556Z,70.16
2022-10-30T20:47:23.757Z,69.18
2022-10-30T20:50:29.561Z,69.16
2022-10-30T20:53:41.041Z,69.63
2022-10-30T20:56:47.893Z,69.14
2022-10-30T20:59:53.491Z,70.12
2022-10-30T21:03:05.693Z,70.08
2022-10-30T21:06:17.474Z,69.91
2022-10-30T21:09:28.508Z,69.76
2022-10-30T21:12:34.343Z,68.82
2022-10-30T21:15:42.847Z,67.93
2022-10-30T21:18:54.496Z,67.53
2022-10-30T21:22:00.139Z,67.11
2022-10-30T21:25:12.945Z,66.85
2022-10-30T21:28:18.590Z,67.14
2022-10-30T21:31:24.760Z,67.36
2022-10-30T21:34:33.016Z,66.82
2022-10-30T21:37:39.501Z,66.56
2022-10-30T21:40:45.246Z,66.29
2022-10-30T21:43:54.953Z,66.18
2022-10-30T21:47:00.607Z,66.05
2022-10-30T21:50:12.666Z,65.70
2022-10-30T21:53:18.886Z,65.56
2022-10-30T21:56:27.596Z,65.35
2022-10-30T21:59:33.284Z,65.18
2022-10-30T22:02:39.100Z,65.07
2022-10-30T22:05:47.327Z,65.26
2022-10-30T22:08:56.835Z,65.15
2022-10-30T22:12:02.462Z,64.90
2022-10-30T22:15:10.147Z,65.13
2022-10-30T22:18:15.861Z,64.98
2022-10-30T22:21:24.524Z,64.70
2022-10-30T22:24:30.107Z,64.97
2022-10-30T22:27:35.665Z,64.96
2022-10-30T22:30:41.295Z,64.74
2022-10-30T22:33:48.281Z,64.71
2022-10-30T22:36:56.703Z,64.78
2022-10-30T22:40:04.615Z,64.57
2022-10-30T22:43:10.314Z,64.81
2022-10-30T22:46:17.519Z,64.43
2022-10-30T22:49:23.107Z,64.91
2022-10-30T22:52:31.374Z,65.00
2022-10-30T22:55:36.968Z,65.17
2022-10-30T22:58:43.361Z,65.49
2022-10-30T23:01:49.112Z,65.30
2022-10-30T23:04:54.815Z,65.00
2022-10-30T23:08:03.021Z,64.98
2022-10-30T23:11:10.196Z,65.11
2022-10-30T23:14:15.764Z,64.87
2022-10-30T23:17:21.365Z,65.38
2022-10-30T23:20:26.946Z,65.30
2022-10-30T23:23:39.020Z,65.41
2022-10-30T23:26:44.619Z,65.06
2022-10-30T23:29:51.224Z,65.42
2022-10-30T23:32:57.126Z,65.01
2022-10-30T23:36:03.658Z,65.30
2022-10-30T23:39:16.241Z,65.17
2022-10-30T23:42:21.861Z,64.72
2022-10-30T23:45:27.526Z,65.22
2022-10-30T23:48:33.189Z,64.99
2022-10-30T23:51:38.954Z,65.37
2022-10-30T23:54:47.220Z,64.70
2022-10-30T23:57:52.893Z,65.30
